sensor_id;sensor_type;location;lat;lon;timestamp;pressure;altitude;pressure_sealevel;temperature;humidity
84928;BME280;75189;50.640;19.242;2024-01-15T00:01:19;99948.85;;;0.38;71.53
84928;BME280;75189;50.640;19.242;2024-01-15T00:07:26;99935.48;;;0.38;71.54
84928;BME280;75189;50.640;19.242;2024-01-15T00:13:33;99922.27;;;0.32;71.54
84928;BME280;75189;50.640;19.242;2024-01-15T00:19:57;99905.50;;;0.27;71.50
84928;BME280;75189;50.640;19.242;2024-01-15T00:26:04;99903.75;;;0.25;71.45
84928;BME280;75189;50.640;19.242;2024-01-15T00:32:11;99896.82;;;0.20;71.48
84928;BME280;75189;50.640;19.242;2024-01-15T00:38:18;99893.27;;;0.19;71.45
84928;BME280;75189;50.640;19.242;2024-01-15T00:44:25;99888.82;;;0.18;71.45
84928;BME280;75189;50.640;19.242;2024-01-15T00:50:32;99882.66;;;0.16;71.46
84928;BME280;75189;50.640;19.242;2024-01-15T00:56:39;99883.47;;;0.18;71.53
84928;BME280;75189;50.640;19.242;2024-01-15T01:02:46;99868.41;;;0.16;71.58
84928;BME280;75189;50.640;19.242;2024-01-15T01:09:14;99848.85;;;0.14;71.64
84928;BME280;75189;50.640;19.242;2024-01-15T01:15:21;99851.49;;;0.15;71.66
84928;BME280;75189;50.640;19.242;2024-01-15T01:21:28;99836.40;;;0.13;71.70
84928;BME280;75189;50.640;19.242;2024-01-15T01:27:35;99817.51;;;0.17;71.65
84928;BME280;75189;50.640;19.242;2024-01-15T01:33:43;99808.68;;;0.15;71.70
84928;BME280;75189;50.640;19.242;2024-01-15T01:39:50;99814.03;;;0.15;71.76
84928;BME280;75189;50.640;19.242;2024-01-15T01:45:57;99803.42;;;0.12;71.87
84928;BME280;75189;50.640;19.242;2024-01-15T01:52:09;99790.83;;;0.16;71.88
84928;BME280;75189;50.640;19.242;2024-01-15T01:58:32;99785.53;;;0.14;71.86
84928;BME280;75189;50.640;19.242;2024-01-15T02:04:40;99773.06;;;0.13;71.85
84928;BME280;75189;50.640;19.242;2024-01-15T02:10:47;99768.74;;;0.09;71.89
84928;BME280;75189;50.640;19.242;2024-01-15T02:16:54;99766.90;;;0.11;71.78
84928;BME280;75189;50.640;19.242;2024-01-15T02:23:12;99780.22;;;0.13;71.74
84928;BME280;75189;50.640;19.242;2024-01-15T02:29:20;99747.18;;;0.14;71.67
84928;BME280;75189;50.640;19.242;2024-01-15T02:35:27;99748.02;;;0.16;71.63
84928;BME280;75189;50.640;19.242;2024-01-15T02:41:34;99737.21;;;0.19;71.46
84928;BME280;75189;50.640;19.242;2024-01-15T02:47:48;99720.26;;;0.18;71.39
84928;BME280;75189;50.640;19.242;2024-01-15T02:53:56;99701.52;;;0.18;71.36
84928;BME280;75189;50.640;19.242;2024-01-15T03:00:04;99687.34;;;0.16;71.25
84928;BME280;75189;50.640;19.242;2024-01-15T03:06:11;99683.87;;;0.14;71.20
84928;BME280;75189;50.640;19.242;2024-01-15T03:12:18;99680.45;;;0.09;71.07
84928;BME280;75189;50.640;19.242;2024-01-15T03:18:25;99670.66;;;0.10;70.97
84928;BME280;75189;50.640;19.242;2024-01-15T03:24:32;99670.66;;;0.10;70.87
84928;BME280;75189;50.640;19.242;2024-01-15T03:30:39;99666.28;;;0.07;70.77
84928;BME280;75189;50.640;19.242;2024-01-15T03:37:05;99659.95;;;0.10;70.67
84928;BME280;75189;50.640;19.242;2024-01-15T03:43:12;99654.54;;;0.11;70.56
84928;BME280;75189;50.640;19.242;2024-01-15T03:49:19;99650.86;;;0.14;70.57
84928;BME280;75189;50.640;19.242;2024-01-15T03:55:26;99633.95;;;0.13;70.48
84928;BME280;75189;50.640;19.242;2024-01-15T04:01:33;99620.73;;;0.09;70.46
84928;BME280;75189;50.640;19.242;2024-01-15T04:07:40;99610.17;;;0.06;70.31
84928;BME280;75189;50.640;19.242;2024-01-15T04:13:47;99612.02;;;0.04;70.22
84928;BME280;75189;50.640;19.242;2024-01-15T04:19:54;99615.70;;;0.01;70.11
84928;BME280;75189;50.640;19.242;2024-01-15T04:26:22;99618.48;;;-0.02;69.96
84928;BME280;75189;50.640;19.242;2024-01-15T04:32:29;99607.84;;;-0.04;69.92
84928;BME280;75189;50.640;19.242;2024-01-15T04:38:36;99599.00;;;-0.06;69.85
84928;BME280;75189;50.640;19.242;2024-01-15T04:44:43;99603.44;;;-0.05;69.87
84928;BME280;75189;50.640;19.242;2024-01-15T04:50:50;99602.50;;;-0.04;69.84
84928;BME280;75189;50.640;19.242;2024-01-15T04:56:57;99622.02;;;-0.02;69.83
84928;BME280;75189;50.640;19.242;2024-01-15T05:03:04;99621.16;;;-0.02;69.77
84928;BME280;75189;50.640;19.242;2024-01-15T05:09:12;99620.55;;;-0.10;69.99
84928;BME280;75189;50.640;19.242;2024-01-15T05:15:39;99614.58;;;-0.17;70.32
84928;BME280;75189;50.640;19.242;2024-01-15T05:21:46;99599.91;;;-0.30;70.93
84928;BME280;75189;50.640;19.242;2024-01-15T05:27:53;99590.16;;;-0.31;71.21
84928;BME280;75189;50.640;19.242;2024-01-15T05:38:06;99588.29;;;-0.29;71.44
84928;BME280;75189;50.640;19.242;2024-01-15T05:44:13;99595.27;;;-0.25;71.49
84928;BME280;75189;50.640;19.242;2024-01-15T05:50:20;99590.76;;;-0.23;71.44
84928;BME280;75189;50.640;19.242;2024-01-15T05:56:27;99595.96;;;-0.20;71.37
84928;BME280;75189;50.640;19.242;2024-01-15T06:02:33;99596.03;;;-0.21;71.30
84928;BME280;75189;50.640;19.242;2024-01-15T06:08:41;99598.64;;;-0.20;71.20
84928;BME280;75189;50.640;19.242;2024-01-15T06:14:47;99596.03;;;-0.21;71.15
84928;BME280;75189;50.640;19.242;2024-01-15T06:21:22;99590.52;;;-0.17;71.12
84928;BME280;75189;50.640;19.242;2024-01-15T06:27:30;99594.12;;;-0.18;70.94
84928;BME280;75189;50.640;19.242;2024-01-15T06:33:37;99603.11;;;-0.20;70.84
84928;BME280;75189;50.640;19.242;2024-01-15T06:39:45;99601.66;;;-0.29;70.55
84928;BME280;75189;50.640;19.242;2024-01-15T06:45:52;99601.29;;;-0.43;70.28
84928;BME280;75189;50.640;19.242;2024-01-15T06:51:59;99603.03;;;-0.42;70.28
84928;BME280;75189;50.640;19.242;2024-01-15T06:58:06;99607.23;;;-0.35;70.23
84928;BME280;75189;50.640;19.242;2024-01-15T07:04:13;99617.06;;;-0.36;70.20
84928;BME280;75189;50.640;19.242;2024-01-15T07:10:40;99616.03;;;-0.32;70.17
84928;BME280;75189;50.640;19.242;2024-01-15T07:16:47;99606.80;;;-0.23;70.16
84928;BME280;75189;50.640;19.242;2024-01-15T07:22:54;99613.55;;;-0.13;70.13
84928;BME280;75189;50.640;19.242;2024-01-15T07:29:01;99618.48;;;-0.02;69.96
84928;BME280;75189;50.640;19.242;2024-01-15T07:35:08;99624.66;;;0.00;69.74
84928;BME280;75189;50.640;19.242;2024-01-15T07:41:15;99638.90;;;0.01;69.79
84928;BME280;75189;50.640;19.242;2024-01-15T07:47:22;99641.92;;;-0.09;70.23
84928;BME280;75189;50.640;19.242;2024-01-15T07:53:29;99641.95;;;-0.10;70.61
84928;BME280;75189;50.640;19.242;2024-01-15T07:59:57;99653.35;;;-0.05;70.87
84928;BME280;75189;50.640;19.242;2024-01-15T08:06:05;99662.48;;;-0.11;71.12
84928;BME280;75189;50.640;19.242;2024-01-15T08:12:13;99669.62;;;-0.11;71.41
84928;BME280;75189;50.640;19.242;2024-01-15T08:18:20;99677.42;;;-0.05;71.58
84928;BME280;75189;50.640;19.242;2024-01-15T08:24:28;99678.25;;;-0.03;71.76
84928;BME280;75189;50.640;19.242;2024-01-15T08:30:35;99685.41;;;-0.04;71.97
84928;BME280;75189;50.640;19.242;2024-01-15T08:36:41;99680.83;;;0.00;72.13
84928;BME280;75189;50.640;19.242;2024-01-15T08:42:49;99678.89;;;0.04;72.19
84928;BME280;75189;50.640;19.242;2024-01-15T08:49:14;99685.63;;;0.14;72.22
84928;BME280;75189;50.640;19.242;2024-01-15T08:55:21;99686.48;;;0.16;72.31
84928;BME280;75189;50.640;19.242;2024-01-15T09:01:29;99699.68;;;0.20;72.44
84928;BME280;75189;50.640;19.242;2024-01-15T09:07:37;99711.84;;;0.29;72.55
84928;BME280;75189;50.640;19.242;2024-01-15T09:13:44;99685.09;;;0.29;72.32
84928;BME280;75189;50.640;19.242;2024-01-15T09:19:51;99682.16;;;0.35;72.02
84928;BME280;75189;50.640;19.242;2024-01-15T09:25:58;99682.50;;;0.49;71.75
84928;BME280;75189;50.640;19.242;2024-01-15T09:32:05;99678.50;;;0.61;71.22
84928;BME280;75189;50.640;19.242;2024-01-15T09:38:31;99677.01;;;0.76;70.67
84928;BME280;75189;50.640;19.242;2024-01-15T09:44:39;99688.52;;;0.78;70.27
84928;BME280;75189;50.640;19.242;2024-01-15T09:50:46;99681.24;;;0.82;69.82
84928;BME280;75189;50.640;19.242;2024-01-15T09:56:54;99682.18;;;0.81;68.96
84928;BME280;75189;50.640;19.242;2024-01-15T10:03:03;99688.70;;;0.73;68.63
84928;BME280;75189;50.640;19.242;2024-01-15T10:09:12;99697.09;;;0.64;68.39
84928;BME280;75189;50.640;19.242;2024-01-15T10:15:25;99685.95;;;0.53;68.39
84928;BME280;75189;50.640;19.242;2024-01-15T10:21:33;99676.93;;;0.56;68.40
84928;BME280;75189;50.640;19.242;2024-01-15T10:34:11;99652.27;;;0.47;67.47
84928;BME280;75189;50.640;19.242;2024-01-15T10:40:22;99639.75;;;0.48;67.14
84928;BME280;75189;50.640;19.242;2024-01-15T10:46:30;99645.02;;;0.49;66.94
84928;BME280;75189;50.640;19.242;2024-01-15T10:52:39;99654.94;;;0.47;66.90
84928;BME280;75189;50.640;19.242;2024-01-15T10:58:47;99659.45;;;0.45;67.04
84928;BME280;75189;50.640;19.242;2024-01-15T11:04:54;99660.12;;;0.52;67.27
84928;BME280;75189;50.640;19.242;2024-01-15T11:11:01;99658.63;;;0.67;67.33
84928;BME280;75189;50.640;19.242;2024-01-15T11:17:09;99651.35;;;0.70;67.27
84928;BME280;75189;50.640;19.242;2024-01-15T11:29:36;99637.77;;;0.75;67.47
84928;BME280;75189;50.640;19.242;2024-01-15T11:35:49;99640.27;;;0.80;67.56
84928;BME280;75189;50.640;19.242;2024-01-15T11:42:01;99639.94;;;0.87;67.58
84928;BME280;75189;50.640;19.242;2024-01-15T11:48:15;99626.91;;;0.78;66.97
84928;BME280;75189;50.640;19.242;2024-01-15T11:54:24;99640.30;;;0.78;66.85
84928;BME280;75189;50.640;19.242;2024-01-15T12:00:55;99634.23;;;0.74;66.58
84928;BME280;75189;50.640;19.242;2024-01-15T12:07:02;99620.77;;;0.76;66.40
84928;BME280;75189;50.640;19.242;2024-01-15T12:13:12;99628.73;;;0.78;66.21
84928;BME280;75189;50.640;19.242;2024-01-15T12:19:19;99619.07;;;0.73;65.74
84928;BME280;75189;50.640;19.242;2024-01-15T12:25:27;99620.16;;;0.69;65.60
84928;BME280;75189;50.640;19.242;2024-01-15T12:31:35;99623.06;;;0.63;64.80
84928;BME280;75189;50.640;19.242;2024-01-15T12:37:43;99614.91;;;0.66;64.98
84928;BME280;75189;50.640;19.242;2024-01-15T12:43:52;99617.48;;;0.69;64.70
84928;BME280;75189;50.640;19.242;2024-01-15T12:50:13;99611.19;;;0.70;64.66
84928;BME280;75189;50.640;19.242;2024-01-15T12:56:19;99622.84;;;0.69;64.49
84928;BME280;75189;50.640;19.242;2024-01-15T13:02:27;99621.75;;;0.73;64.53
84928;BME280;75189;50.640;19.242;2024-01-15T13:08:33;99620.27;;;0.66;64.38
84928;BME280;75189;50.640;19.242;2024-01-15T13:14:40;99613.91;;;0.69;64.50
84928;BME280;75189;50.640;19.242;2024-01-15T13:20:47;99637.02;;;0.71;64.37
84928;BME280;75189;50.640;19.242;2024-01-15T13:26:55;99627.11;;;0.73;64.26
84928;BME280;75189;50.640;19.242;2024-01-15T13:33:04;99628.87;;;0.74;64.23
84928;BME280;75189;50.640;19.242;2024-01-15T13:39:29;99612.85;;;0.73;64.06
84928;BME280;75189;50.640;19.242;2024-01-15T13:45:41;99622.84;;;0.69;64.13
84928;BME280;75189;50.640;19.242;2024-01-15T13:51:49;99622.84;;;0.69;64.02
84928;BME280;75189;50.640;19.242;2024-01-15T13:57:56;99632.97;;;0.61;63.94
84928;BME280;75189;50.640;19.242;2024-01-15T14:04:03;99629.54;;;0.58;63.74
84928;BME280;75189;50.640;19.242;2024-01-15T14:10:11;99623.51;;;0.53;63.45
84928;BME280;75189;50.640;19.242;2024-01-15T14:16:18;99631.42;;;0.56;63.39
84928;BME280;75189;50.640;19.242;2024-01-15T14:22:25;99637.64;;;0.56;63.33
84928;BME280;75189;50.640;19.242;2024-01-15T14:28:46;99632.15;;;0.59;63.38
84928;BME280;75189;50.640;19.242;2024-01-15T14:34:54;99635.66;;;0.61;63.33
84928;BME280;75189;50.640;19.242;2024-01-15T14:41:03;99650.79;;;0.62;63.46
84928;BME280;75189;50.640;19.242;2024-01-15T14:47:10;99643.54;;;0.64;63.46
84928;BME280;75189;50.640;19.242;2024-01-15T14:53:18;99647.99;;;0.65;63.11
84928;BME280;75189;50.640;19.242;2024-01-15T14:59:24;99646.41;;;0.60;63.08
84928;BME280;75189;50.640;19.242;2024-01-15T15:05:32;99630.70;;;0.50;63.20
84928;BME280;75189;50.640;19.242;2024-01-15T15:11:38;99648.57;;;0.50;63.37
84928;BME280;75189;50.640;19.242;2024-01-15T15:18:03;99652.02;;;0.54;63.40
84928;BME280;75189;50.640;19.242;2024-01-15T15:24:10;99657.65;;;0.46;63.28
84928;BME280;75189;50.640;19.242;2024-01-15T15:30:17;99663.37;;;0.37;63.28
84928;BME280;75189;50.640;19.242;2024-01-15T15:36:24;99675.07;;;0.34;63.23
84928;BME280;75189;50.640;19.242;2024-01-15T15:42:32;99677.70;;;0.36;63.22
84928;BME280;75189;50.640;19.242;2024-01-15T15:48:38;99690.30;;;0.32;63.29
84928;BME280;75189;50.640;19.242;2024-01-15T15:54:46;99679.56;;;0.34;63.31
84928;BME280;75189;50.640;19.242;2024-01-15T16:00:52;99685.85;;;0.33;63.33
84928;BME280;75189;50.640;19.242;2024-01-15T16:07:21;99689.67;;;0.25;63.42
84928;BME280;75189;50.640;19.242;2024-01-15T16:13:27;99688.87;;;0.23;63.45
84928;BME280;75189;50.640;19.242;2024-01-15T16:19:36;99691.55;;;0.23;63.49
84928;BME280;75189;50.640;19.242;2024-01-15T16:25:42;99689.85;;;0.21;63.39
84928;BME280;75189;50.640;19.242;2024-01-15T16:31:49;99700.48;;;0.22;63.46
84928;BME280;75189;50.640;19.242;2024-01-15T16:37:56;99695.97;;;0.24;63.42
84928;BME280;75189;50.640;19.242;2024-01-15T16:44:04;99690.88;;;0.17;63.20
84928;BME280;75189;50.640;19.242;2024-01-15T16:50:11;99700.90;;;0.12;63.32
84928;BME280;75189;50.640;19.242;2024-01-15T16:56:38;99712.46;;;0.12;63.45
84928;BME280;75189;50.640;19.242;2024-01-15T17:02:44;99706.08;;;0.16;63.57
84928;BME280;75189;50.640;19.242;2024-01-15T17:08:52;99704.34;;;0.15;63.49
84928;BME280;75189;50.640;19.242;2024-01-15T17:14:58;99697.25;;;0.14;63.39
84928;BME280;75189;50.640;19.242;2024-01-15T17:21:05;99709.95;;;0.08;63.47
84928;BME280;75189;50.640;19.242;2024-01-15T17:27:12;99704.91;;;0.00;63.67
84928;BME280;75189;50.640;19.242;2024-01-15T17:33:20;99706.73;;;-0.02;63.97
84928;BME280;75189;50.640;19.242;2024-01-15T17:39:26;99698.71;;;-0.02;64.12
84928;BME280;75189;50.640;19.242;2024-01-15T17:45:55;99718.31;;;-0.02;64.21
84928;BME280;75189;50.640;19.242;2024-01-15T17:52:08;99733.39;;;0.01;64.38
84928;BME280;75189;50.640;19.242;2024-01-15T17:58:15;99734.20;;;0.03;64.57
84928;BME280;75189;50.640;19.242;2024-01-15T18:04:22;99734.26;;;0.02;64.76
84928;BME280;75189;50.640;19.242;2024-01-15T18:10:29;99740.81;;;-0.07;65.23
84928;BME280;75189;50.640;19.242;2024-01-15T18:16:36;99751.02;;;-0.18;66.27
84928;BME280;75189;50.640;19.242;2024-01-15T18:22:43;99753.96;;;-0.26;66.76
84928;BME280;75189;50.640;19.242;2024-01-15T18:28:50;99735.71;;;-0.40;67.12
84928;BME280;75189;50.640;19.242;2024-01-15T18:35:12;99759.40;;;-0.29;67.41
84928;BME280;75189;50.640;19.242;2024-01-15T18:41:22;99762.20;;;-0.32;67.97
84928;BME280;75189;50.640;19.242;2024-01-15T18:47:31;99762.23;;;-0.34;68.00
84928;BME280;75189;50.640;19.242;2024-01-15T18:53:38;99770.47;;;-0.40;68.40
84928;BME280;75189;50.640;19.242;2024-01-15T18:59:46;99766.21;;;-0.45;68.84
84928;BME280;75189;50.640;19.242;2024-01-15T19:05:53;99786.74;;;-0.47;69.25
84928;BME280;75189;50.640;19.242;2024-01-15T19:12:01;99764.49;;;-0.48;69.42
84928;BME280;75189;50.640;19.242;2024-01-15T19:18:08;99764.74;;;-0.56;69.48
84928;BME280;75189;50.640;19.242;2024-01-15T19:24:29;99772.87;;;-0.59;69.64
84928;BME280;75189;50.640;19.242;2024-01-15T19:30:36;99779.09;;;-0.58;69.77
84928;BME280;75189;50.640;19.242;2024-01-15T19:36:42;99788.05;;;-0.59;69.89
84928;BME280;75189;50.640;19.242;2024-01-15T19:42:49;99787.20;;;-0.61;70.01
84928;BME280;75189;50.640;19.242;2024-01-15T19:48:57;99787.12;;;-0.58;70.09
84928;BME280;75189;50.640;19.242;2024-01-15T19:55:04;99809.51;;;-0.62;70.22
84928;BME280;75189;50.640;19.242;2024-01-15T20:01:12;99807.71;;;-0.62;70.34
84928;BME280;75189;50.640;19.242;2024-01-15T20:07:18;99818.34;;;-0.60;70.46
84928;BME280;75189;50.640;19.242;2024-01-15T20:13:46;99814.91;;;-0.64;70.51
84928;BME280;75189;50.640;19.242;2024-01-15T20:19:53;99817.59;;;-0.64;70.54
84928;BME280;75189;50.640;19.242;2024-01-15T20:26:03;99822.09;;;-0.66;70.61
84928;BME280;75189;50.640;19.242;2024-01-15T20:32:10;99832.05;;;-0.71;70.64
84928;BME280;75189;50.640;19.242;2024-01-15T20:38:21;99836.46;;;-0.70;70.67
84928;BME280;75189;50.640;19.242;2024-01-15T20:44:27;99849.67;;;-0.65;70.53
84928;BME280;75189;50.640;19.242;2024-01-15T20:50:34;99848.80;;;-0.66;70.45
84928;BME280;75189;50.640;19.242;2024-01-15T20:56:41;99855.01;;;-0.64;70.43
84928;BME280;75189;50.640;19.242;2024-01-15T21:03:05;99848.52;;;-0.57;70.34
84928;BME280;75189;50.640;19.242;2024-01-15T21:09:12;99862.66;;;-0.53;70.17
84928;BME280;75189;50.640;19.242;2024-01-15T21:15:19;99868.73;;;-0.48;69.94
84928;BME280;75189;50.640;19.242;2024-01-15T21:21:26;99874.95;;;-0.47;69.86
84928;BME280;75189;50.640;19.242;2024-01-15T21:27:32;99878.42;;;-0.44;69.81
84928;BME280;75189;50.640;19.242;2024-01-15T21:33:39;99897.93;;;-0.42;69.58
84928;BME280;75189;50.640;19.242;2024-01-15T21:39:51;99899.73;;;-0.42;69.58
84928;BME280;75189;50.640;19.242;2024-01-15T21:45:58;99909.55;;;-0.43;69.62
84928;BME280;75189;50.640;19.242;2024-01-15T21:52:20;99908.49;;;-0.37;69.54
84928;BME280;75189;50.640;19.242;2024-01-15T21:58:27;99921.70;;;-0.33;69.34
84928;BME280;75189;50.640;19.242;2024-01-15T22:04:36;99922.48;;;-0.28;69.25
84928;BME280;75189;50.640;19.242;2024-01-15T22:10:43;99932.18;;;-0.25;69.05
84928;BME280;75189;50.640;19.242;2024-01-15T22:16:50;99935.63;;;-0.21;68.74
84928;BME280;75189;50.640;19.242;2024-01-15T22:22:57;99948.01;;;-0.19;68.63
84928;BME280;75189;50.640;19.242;2024-01-15T22:29:05;99949.66;;;-0.15;68.53
84928;BME280;75189;50.640;19.242;2024-01-15T22:35:12;99957.08;;;-0.23;68.50
84928;BME280;75189;50.640;19.242;2024-01-15T22:41:37;99961.52;;;-0.23;68.61
84928;BME280;75189;50.640;19.242;2024-01-15T22:47:45;99960.64;;;-0.24;68.67
84928;BME280;75189;50.640;19.242;2024-01-15T22:53:52;99967.72;;;-0.21;68.65
84928;BME280;75189;50.640;19.242;2024-01-15T22:59:59;99986.49;;;-0.23;68.69
84928;BME280;75189;50.640;19.242;2024-01-15T23:06:17;99986.44;;;-0.21;68.74
84928;BME280;75189;50.640;19.242;2024-01-15T23:12:25;99997.20;;;-0.23;68.88
84928;BME280;75189;50.640;19.242;2024-01-15T23:18:33;100004.31;;;-0.23;69.03
84928;BME280;75189;50.640;19.242;2024-01-15T23:24:39;100019.40;;;-0.21;69.16
84928;BME280;75189;50.640;19.242;2024-01-15T23:30:54;100005.89;;;-0.16;69.21
84928;BME280;75189;50.640;19.242;2024-01-15T23:37:01;100012.30;;;-0.22;69.31
84928;BME280;75189;50.640;19.242;2024-01-15T23:43:08;100026.55;;;-0.21;69.43
84928;BME280;75189;50.640;19.242;2024-01-15T23:49:18;100022.13;;;-0.22;69.46
84928;BME280;75189;50.640;19.242;2024-01-15T23:55:25;100029.36;;;-0.26;69.51
